sensor_id;sensor_type;location;lat;lon;timestamp;P1;durP1;ratioP1;P2;durP2;ratioP2
6610;SDS011;44111;46.692;13.664;2023-04-07T00:00:00;3.80;;;3.40;;
6610;SDS011;44111;46.692;13.664;2023-04-07T00:02:31;4.30;;;3.80;;
6610;SDS011;44111;46.692;13.664;2023-04-07T00:04:59;5.87;;;4.80;;
6610;SDS011;44111;46.692;13.664;2023-04-07T00:07:27;6.43;;;5.03;;
6610;SDS011;44111;46.692;13.664;2023-04-07T00:09:56;5.50;;;4.77;;
6610;SDS011;44111;46.692;13.664;2023-04-07T00:12:25;4.97;;;3.93;;
6610;SDS011;44111;46.692;13.664;2023-04-07T00:14:54;4.07;;;3.67;;
6610;SDS011;44111;46.692;13.664;2023-04-07T00:17:23;4.87;;;3.77;;
6610;SDS011;44111;46.692;13.664;2023-04-07T00:19:53;3.77;;;3.47;;
6610;SDS011;44111;46.692;13.664;2023-04-07T00:22:20;4.20;;;3.87;;
6610;SDS011;44111;46.692;13.664;2023-04-07T00:24:48;4.57;;;4.17;;
6610;SDS011;44111;46.692;13.664;2023-04-07T00:27:23;3.60;;;3.30;;
6610;SDS011;44111;46.692;13.664;2023-04-07T00:29:52;4.53;;;3.10;;
6610;SDS011;44111;46.692;13.664;2023-04-07T00:32:21;3.40;;;3.10;;
6610;SDS011;44111;46.692;13.664;2023-04-07T00:34:49;3.73;;;3.43;;
6610;SDS011;44111;46.692;13.664;2023-04-07T00:37:19;4.10;;;3.60;;
6610;SDS011;44111;46.692;13.664;2023-04-07T00:39:47;3.57;;;3.27;;
6610;SDS011;44111;46.692;13.664;2023-04-07T00:42:16;4.33;;;3.67;;
6610;SDS011;44111;46.692;13.664;2023-04-07T00:44:45;3.70;;;3.40;;
6610;SDS011;44111;46.692;13.664;2023-04-07T00:47:13;3.90;;;3.60;;
6610;SDS011;44111;46.692;13.664;2023-04-07T00:49:42;3.77;;;3.40;;
6610;SDS011;44111;46.692;13.664;2023-04-07T00:52:14;4.60;;;3.80;;
6610;SDS011;44111;46.692;13.664;2023-04-07T00:57:15;4.00;;;3.63;;
6610;SDS011;44111;46.692;13.664;2023-04-07T00:59:44;3.33;;;3.00;;
6610;SDS011;44111;46.692;13.664;2023-04-07T01:02:17;4.63;;;3.27;;
6610;SDS011;44111;46.692;13.664;2023-04-07T01:04:50;3.50;;;3.27;;
6610;SDS011;44111;46.692;13.664;2023-04-07T01:07:22;3.43;;;3.13;;
6610;SDS011;44111;46.692;13.664;2023-04-07T01:09:56;3.17;;;2.87;;
6610;SDS011;44111;46.692;13.664;2023-04-07T01:12:28;3.80;;;3.13;;
6610;SDS011;44111;46.692;13.664;2023-04-07T01:15:04;3.50;;;3.20;;
6610;SDS011;44111;46.692;13.664;2023-04-07T01:17:36;4.03;;;3.10;;
6610;SDS011;44111;46.692;13.664;2023-04-07T01:20:05;3.27;;;2.97;;
6610;SDS011;44111;46.692;13.664;2023-04-07T01:22:36;3.40;;;3.07;;
6610;SDS011;44111;46.692;13.664;2023-04-07T01:25:15;3.40;;;3.10;;
6610;SDS011;44111;46.692;13.664;2023-04-07T01:27:53;3.13;;;2.77;;
6610;SDS011;44111;46.692;13.664;2023-04-07T01:30:32;3.60;;;3.30;;
6610;SDS011;44111;46.692;13.664;2023-04-07T01:33:03;4.40;;;3.50;;
6610;SDS011;44111;46.692;13.664;2023-04-07T01:35:33;3.83;;;3.53;;
6610;SDS011;44111;46.692;13.664;2023-04-07T01:38:02;4.00;;;3.70;;
6610;SDS011;44111;46.692;13.664;2023-04-07T01:40:33;3.70;;;3.40;;
6610;SDS011;44111;46.692;13.664;2023-04-07T01:43:02;4.00;;;3.60;;
6610;SDS011;44111;46.692;13.664;2023-04-07T01:45:32;4.00;;;3.45;;
6610;SDS011;44111;46.692;13.664;2023-04-07T01:48:03;4.00;;;2.93;;
6610;SDS011;44111;46.692;13.664;2023-04-07T01:50:33;3.70;;;3.40;;
6610;SDS011;44111;46.692;13.664;2023-04-07T01:53:04;3.17;;;2.97;;
6610;SDS011;44111;46.692;13.664;2023-04-07T01:55:31;3.67;;;3.37;;
6610;SDS011;44111;46.692;13.664;2023-04-07T01:58:02;3.97;;;3.53;;
6610;SDS011;44111;46.692;13.664;2023-04-07T02:00:37;4.37;;;3.33;;
6610;SDS011;44111;46.692;13.664;2023-04-07T02:03:08;4.10;;;3.77;;
6610;SDS011;44111;46.692;13.664;2023-04-07T02:05:46;3.70;;;3.40;;
6610;SDS011;44111;46.692;13.664;2023-04-07T02:08:18;3.47;;;3.17;;
6610;SDS011;44111;46.692;13.664;2023-04-07T02:10:48;3.33;;;3.13;;
6610;SDS011;44111;46.692;13.664;2023-04-07T02:15:52;3.30;;;2.97;;
6610;SDS011;44111;46.692;13.664;2023-04-07T02:18:21;3.30;;;3.00;;
6610;SDS011;44111;46.692;13.664;2023-04-07T02:20:50;3.53;;;3.23;;
6610;SDS011;44111;46.692;13.664;2023-04-07T02:23:19;3.53;;;3.10;;
6610;SDS011;44111;46.692;13.664;2023-04-07T02:25:47;4.03;;;3.20;;
6610;SDS011;44111;46.692;13.664;2023-04-07T02:28:23;3.90;;;3.00;;
6610;SDS011;44111;46.692;13.664;2023-04-07T02:30:59;3.50;;;3.20;;
6610;SDS011;44111;46.692;13.664;2023-04-07T02:33:28;3.73;;;3.07;;
6610;SDS011;44111;46.692;13.664;2023-04-07T02:35:59;3.47;;;3.17;;
6610;SDS011;44111;46.692;13.664;2023-04-07T02:38:28;3.47;;;2.80;;
6610;SDS011;44111;46.692;13.664;2023-04-07T02:40:56;3.50;;;2.90;;
6610;SDS011;44111;46.692;13.664;2023-04-07T02:43:31;3.17;;;2.97;;
6610;SDS011;44111;46.692;13.664;2023-04-07T02:46:05;3.27;;;2.97;;
6610;SDS011;44111;46.692;13.664;2023-04-07T02:48:35;3.20;;;3.00;;
6610;SDS011;44111;46.692;13.664;2023-04-07T02:51:02;3.27;;;2.97;;
6610;SDS011;44111;46.692;13.664;2023-04-07T02:53:40;3.40;;;3.10;;
6610;SDS011;44111;46.692;13.664;2023-04-07T02:56:09;4.07;;;3.63;;
6610;SDS011;44111;46.692;13.664;2023-04-07T02:58:37;3.50;;;3.20;;
6610;SDS011;44111;46.692;13.664;2023-04-07T03:03:59;3.93;;;3.53;;
6610;SDS011;44111;46.692;13.664;2023-04-07T03:06:27;4.80;;;3.43;;
6610;SDS011;44111;46.692;13.664;2023-04-07T03:08:57;3.20;;;2.90;;
6610;SDS011;44111;46.692;13.664;2023-04-07T03:13:57;3.83;;;3.17;;
6610;SDS011;44111;46.692;13.664;2023-04-07T03:16:27;3.70;;;3.40;;
6610;SDS011;44111;46.692;13.664;2023-04-07T03:19:00;3.10;;;2.80;;
6610;SDS011;44111;46.692;13.664;2023-04-07T03:24:01;4.10;;;3.20;;
6610;SDS011;44111;46.692;13.664;2023-04-07T03:26:29;3.13;;;2.83;;
6610;SDS011;44111;46.692;13.664;2023-04-07T03:28:58;3.47;;;3.17;;
6610;SDS011;44111;46.692;13.664;2023-04-07T03:31:30;3.40;;;3.10;;
6610;SDS011;44111;46.692;13.664;2023-04-07T03:34:04;4.40;;;3.60;;
6610;SDS011;44111;46.692;13.664;2023-04-07T03:36:33;3.40;;;3.00;;
6610;SDS011;44111;46.692;13.664;2023-04-07T03:39:00;3.60;;;3.30;;
6610;SDS011;44111;46.692;13.664;2023-04-07T03:41:29;5.60;;;3.60;;
6610;SDS011;44111;46.692;13.664;2023-04-07T03:43:58;4.30;;;3.90;;
6610;SDS011;44111;46.692;13.664;2023-04-07T03:46:26;4.33;;;3.97;;
6610;SDS011;44111;46.692;13.664;2023-04-07T03:48:54;4.80;;;4.10;;
6610;SDS011;44111;46.692;13.664;2023-04-07T03:51:30;4.40;;;4.00;;
6610;SDS011;44111;46.692;13.664;2023-04-07T03:54:00;4.30;;;3.90;;
6610;SDS011;44111;46.692;13.664;2023-04-07T04:07:00;34.90;;;7.00;;
6610;SDS011;44111;46.692;13.664;2023-04-07T04:09:28;9.37;;;4.47;;
6610;SDS011;44111;46.692;13.664;2023-04-07T04:11:56;13.37;;;4.40;;
6610;SDS011;44111;46.692;13.664;2023-04-07T04:14:25;9.40;;;4.17;;
6610;SDS011;44111;46.692;13.664;2023-04-07T04:16:57;5.57;;;3.40;;
6610;SDS011;44111;46.692;13.664;2023-04-07T04:19:25;3.50;;;3.20;;
6610;SDS011;44111;46.692;13.664;2023-04-07T04:21:55;5.00;;;3.37;;
6610;SDS011;44111;46.692;13.664;2023-04-07T04:29:57;4.00;;;3.60;;
6610;SDS011;44111;46.692;13.664;2023-04-07T04:32:31;7.27;;;3.90;;
6610;SDS011;44111;46.692;13.664;2023-04-07T04:35:00;7.37;;;4.37;;
6610;SDS011;44111;46.692;13.664;2023-04-07T04:37:35;8.63;;;3.97;;
6610;SDS011;44111;46.692;13.664;2023-04-07T04:42:46;4.17;;;3.20;;
6610;SDS011;44111;46.692;13.664;2023-04-07T04:45:15;4.30;;;3.17;;
6610;SDS011;44111;46.692;13.664;2023-04-07T04:47:43;4.53;;;3.30;;
6610;SDS011;44111;46.692;13.664;2023-04-07T04:52:52;4.40;;;3.53;;
6610;SDS011;44111;46.692;13.664;2023-04-07T04:55:23;10.63;;;4.80;;
6610;SDS011;44111;46.692;13.664;2023-04-07T05:00:34;10.40;;;4.40;;
6610;SDS011;44111;46.692;13.664;2023-04-07T05:03:05;10.53;;;4.37;;
6610;SDS011;44111;46.692;13.664;2023-04-07T05:05:34;10.10;;;4.43;;
6610;SDS011;44111;46.692;13.664;2023-04-07T05:08:10;9.27;;;4.43;;
6610;SDS011;44111;46.692;13.664;2023-04-07T05:10:41;6.63;;;5.03;;
6610;SDS011;44111;46.692;13.664;2023-04-07T05:18:38;19.30;;;5.70;;
6610;SDS011;44111;46.692;13.664;2023-04-07T05:21:07;5.50;;;4.20;;
6610;SDS011;44111;46.692;13.664;2023-04-07T05:23:34;6.53;;;4.70;;
6610;SDS011;44111;46.692;13.664;2023-04-07T05:26:03;6.03;;;4.77;;
6610;SDS011;44111;46.692;13.664;2023-04-07T05:28:30;7.27;;;5.50;;
6610;SDS011;44111;46.692;13.664;2023-04-07T05:30:57;5.80;;;5.30;;
6610;SDS011;44111;46.692;13.664;2023-04-07T05:33:25;4.43;;;4.03;;
6610;SDS011;44111;46.692;13.664;2023-04-07T05:35:52;5.30;;;3.57;;
6610;SDS011;44111;46.692;13.664;2023-04-07T05:38:20;4.63;;;3.23;;
6610;SDS011;44111;46.692;13.664;2023-04-07T05:40:48;4.23;;;3.83;;
6610;SDS011;44111;46.692;13.664;2023-04-07T05:43:16;5.87;;;3.50;;
6610;SDS011;44111;46.692;13.664;2023-04-07T05:45:44;5.07;;;4.27;;
6610;SDS011;44111;46.692;13.664;2023-04-07T05:48:11;74.00;;;11.17;;
6610;SDS011;44111;46.692;13.664;2023-04-07T05:50:39;20.07;;;5.73;;
6610;SDS011;44111;46.692;13.664;2023-04-07T05:53:06;10.27;;;4.97;;
6610;SDS011;44111;46.692;13.664;2023-04-07T05:55:33;8.30;;;5.30;;
6610;SDS011;44111;46.692;13.664;2023-04-07T05:58:00;5.93;;;5.00;;
6610;SDS011;44111;46.692;13.664;2023-04-07T06:00:28;6.63;;;5.93;;
6610;SDS011;44111;46.692;13.664;2023-04-07T06:02:55;8.20;;;6.27;;
6610;SDS011;44111;46.692;13.664;2023-04-07T06:05:22;6.80;;;5.83;;
6610;SDS011;44111;46.692;13.664;2023-04-07T06:07:50;6.30;;;5.70;;
6610;SDS011;44111;46.692;13.664;2023-04-07T06:10:19;6.53;;;5.93;;
6610;SDS011;44111;46.692;13.664;2023-04-07T06:12:47;5.47;;;4.97;;
6610;SDS011;44111;46.692;13.664;2023-04-07T06:15:14;7.27;;;5.67;;
6610;SDS011;44111;46.692;13.664;2023-04-07T06:17:43;8.47;;;6.00;;
6610;SDS011;44111;46.692;13.664;2023-04-07T06:20:10;6.50;;;5.90;;
6610;SDS011;44111;46.692;13.664;2023-04-07T06:22:38;7.60;;;6.90;;
6610;SDS011;44111;46.692;13.664;2023-04-07T06:25:06;7.93;;;7.20;;
6610;SDS011;44111;46.692;13.664;2023-04-07T06:27:34;7.90;;;7.10;;
6610;SDS011;44111;46.692;13.664;2023-04-07T06:30:01;6.87;;;6.20;;
6610;SDS011;44111;46.692;13.664;2023-04-07T06:52:08;7.40;;;6.70;;
6610;SDS011;44111;46.692;13.664;2023-04-07T06:54:35;6.97;;;6.37;;
6610;SDS011;44111;46.692;13.664;2023-04-07T06:57:03;8.33;;;7.50;;
6610;SDS011;44111;46.692;13.664;2023-04-07T06:59:35;7.33;;;6.63;;
6610;SDS011;44111;46.692;13.664;2023-04-07T07:02:04;7.20;;;6.50;;
6610;SDS011;44111;46.692;13.664;2023-04-07T07:04:32;9.30;;;7.30;;
6610;SDS011;44111;46.692;13.664;2023-04-07T07:07:00;7.80;;;7.00;;
6610;SDS011;44111;46.692;13.664;2023-04-07T07:09:30;7.13;;;6.43;;
6610;SDS011;44111;46.692;13.664;2023-04-07T07:11:57;7.57;;;6.37;;
6610;SDS011;44111;46.692;13.664;2023-04-07T07:14:26;13.70;;;7.10;;
6610;SDS011;44111;46.692;13.664;2023-04-07T07:16:53;7.70;;;6.90;;
6610;SDS011;44111;46.692;13.664;2023-04-07T07:19:21;8.73;;;6.77;;
6610;SDS011;44111;46.692;13.664;2023-04-07T07:21:48;6.70;;;6.10;;
6610;SDS011;44111;46.692;13.664;2023-04-07T07:24:16;7.40;;;6.70;;
6610;SDS011;44111;46.692;13.664;2023-04-07T07:26:45;7.03;;;6.43;;
6610;SDS011;44111;46.692;13.664;2023-04-07T07:29:12;6.63;;;5.70;;
6610;SDS011;44111;46.692;13.664;2023-04-07T07:31:40;9.60;;;6.90;;
6610;SDS011;44111;46.692;13.664;2023-04-07T07:34:08;6.47;;;5.70;;
6610;SDS011;44111;46.692;13.664;2023-04-07T07:36:36;6.67;;;5.77;;
6610;SDS011;44111;46.692;13.664;2023-04-07T07:39:03;6.07;;;5.47;;
6610;SDS011;44111;46.692;13.664;2023-04-07T07:41:31;5.73;;;5.00;;
6610;SDS011;44111;46.692;13.664;2023-04-07T07:44:00;7.60;;;6.57;;
6610;SDS011;44111;46.692;13.664;2023-04-07T07:46:27;6.57;;;5.97;;
6610;SDS011;44111;46.692;13.664;2023-04-07T07:48:54;6.07;;;5.47;;
6610;SDS011;44111;46.692;13.664;2023-04-07T07:51:22;5.60;;;5.10;;
6610;SDS011;44111;46.692;13.664;2023-04-07T07:53:49;19.20;;;6.00;;
6610;SDS011;44111;46.692;13.664;2023-04-07T08:06:07;5.77;;;5.10;;
6610;SDS011;44111;46.692;13.664;2023-04-07T22:46:58;2.67;;;2.47;;
6610;SDS011;44111;46.692;13.664;2023-04-07T22:49:28;2.37;;;2.17;;
6610;SDS011;44111;46.692;13.664;2023-04-07T22:51:56;3.43;;;2.70;;
6610;SDS011;44111;46.692;13.664;2023-04-07T22:54:26;3.50;;;2.53;;
6610;SDS011;44111;46.692;13.664;2023-04-07T22:56:54;3.77;;;3.20;;
6610;SDS011;44111;46.692;13.664;2023-04-07T22:59:22;2.60;;;2.40;;
6610;SDS011;44111;46.692;13.664;2023-04-07T23:01:51;3.47;;;2.97;;
6610;SDS011;44111;46.692;13.664;2023-04-07T23:04:20;3.77;;;3.43;;
6610;SDS011;44111;46.692;13.664;2023-04-07T23:06:47;3.80;;;2.50;;
6610;SDS011;44111;46.692;13.664;2023-04-07T23:09:16;4.33;;;3.70;;
6610;SDS011;44111;46.692;13.664;2023-04-07T23:11:44;3.10;;;2.50;;
6610;SDS011;44111;46.692;13.664;2023-04-07T23:14:11;3.40;;;3.10;;
6610;SDS011;44111;46.692;13.664;2023-04-07T23:16:39;2.70;;;2.50;;
6610;SDS011;44111;46.692;13.664;2023-04-07T23:19:08;2.77;;;2.50;;
6610;SDS011;44111;46.692;13.664;2023-04-07T23:21:39;3.70;;;2.50;;
